createdAt,value
2019-01-16T00:00:32.241Z,6.27
2019-01-16T00:03:15.493Z,6.33
2019-01-16T00:06:13.256Z,5.70
2019-01-16T00:08:59.935Z,4.87
2019-01-16T00:11:48.061Z,5.53
2019-01-16T00:14:24.907Z,5.97
2019-01-16T00:17:14.171Z,7.47
2019-01-16T00:19:50.722Z,4.57
2019-01-16T00:22:42.526Z,5.10
2019-01-16T00:25:29.410Z,7.43
2019-01-16T00:28:16.129Z,7.77
2019-01-16T00:31:11.567Z,7.60
2019-01-16T00:33:48.692Z,7.33
2019-01-16T00:36:35.273Z,6.43
2019-01-16T00:39:16.281Z,5.77
2019-01-16T00:42:02.297Z,6.00
2019-01-16T00:44:49.128Z,5.73
2019-01-16T00:47:39.909Z,6.77
2019-01-16T00:50:43.365Z,6.20
2019-01-16T00:53:31.321Z,5.67
2019-01-16T00:56:18.134Z,6.60
2019-01-16T00:59:04.933Z,5.80
2019-01-16T01:01:47.714Z,5.13
2019-01-16T01:04:30.528Z,5.80
2019-01-16T01:07:18.666Z,5.50
2019-01-16T01:10:16.099Z,5.30
2019-01-16T01:13:14.353Z,5.27
2019-01-16T01:16:05.519Z,5.30
2019-01-16T01:18:52.091Z,5.30
2019-01-16T01:21:34.170Z,5.07
2019-01-16T01:24:20.786Z,5.23
2019-01-16T01:27:23.898Z,4.43
2019-01-16T01:30:03.894Z,4.90
2019-01-16T01:32:50.734Z,4.97
2019-01-16T01:35:44.989Z,4.90
2019-01-16T01:38:41.655Z,5.80
2019-01-16T01:41:29.769Z,5.03
2019-01-16T01:44:16.566Z,5.20
2019-01-16T01:47:09.509Z,5.10
2019-01-16T01:49:58.768Z,5.50
2019-01-16T01:52:40.506Z,5.17
2019-01-16T01:55:18.879Z,4.97
2019-01-16T01:58:14.523Z,4.93
2019-01-16T02:01:02.654Z,4.87
2019-01-16T02:03:50.763Z,5.17
2019-01-16T02:06:37.730Z,4.40
2019-01-16T02:09:19.203Z,4.70
2019-01-16T02:12:16.550Z,4.70
2019-01-16T02:15:19.582Z,5.23
2019-01-16T02:18:07.703Z,5.00
2019-01-16T02:20:53.690Z,4.93
2019-01-16T02:23:40.452Z,5.83
2019-01-16T02:26:40.921Z,5.93
2019-01-16T02:29:27.376Z,5.37
2019-01-16T02:32:26.999Z,5.57
2019-01-16T02:35:13.565Z,5.80
2019-01-16T02:37:58.263Z,6.50
2019-01-16T02:40:37.289Z,6.00
2019-01-16T02:43:24.091Z,6.13
2019-01-16T02:46:21.383Z,5.93
2019-01-16T02:49:12.535Z,6.20
2019-01-16T02:51:56.709Z,4.83
2019-01-16T02:54:44.824Z,5.97
2019-01-16T02:57:38.965Z,5.30
2019-01-16T03:00:17.188Z,5.50
2019-01-16T03:02:58.770Z,4.80
2019-01-16T03:05:58.940Z,4.43
2019-01-16T03:08:52.854Z,4.77
2019-01-16T03:11:44.035Z,4.97
2019-01-16T03:14:27.141Z,4.67
2019-01-16T03:17:15.278Z,4.07
2019-01-16T03:20:10.053Z,4.67
2019-01-16T03:22:58.191Z,4.93
2019-01-16T03:25:41.871Z,4.77
2019-01-16T03:28:38.834Z,4.60
2019-01-16T03:31:35.847Z,4.73
2019-01-16T03:34:26.738Z,4.57
2019-01-16T03:37:13.522Z,5.30
2019-01-16T03:40:00.344Z,4.47
2019-01-16T03:43:00.556Z,4.83
2019-01-16T03:45:37.846Z,4.80
2019-01-16T03:48:18.196Z,5.20
2019-01-16T03:51:05.151Z,4.80
2019-01-16T03:54:02.837Z,5.33
2019-01-16T03:56:49.553Z,5.33
2019-01-16T03:59:35.610Z,5.30
2019-01-16T04:02:35.875Z,4.90
2019-01-16T04:05:22.877Z,4.60
2019-01-16T04:08:09.478Z,5.27
2019-01-16T04:11:06.674Z,4.80
2019-01-16T04:13:53.249Z,6.13
2019-01-16T04:16:35.110Z,5.10
2019-01-16T04:19:22.058Z,5.10
2019-01-16T04:22:02.137Z,5.30
2019-01-16T04:24:50.765Z,4.90
2019-01-16T04:27:27.774Z,5.03
2019-01-16T04:30:08.218Z,5.17
2019-01-16T04:33:02.139Z,5.10
2019-01-16T04:35:50.059Z,4.70
2019-01-16T04:38:50.379Z,5.10
2019-01-16T04:41:36.979Z,4.37
2019-01-16T04:44:21.637Z,4.27
2019-01-16T04:47:08.365Z,4.50
2019-01-16T04:49:51.795Z,4.47
2019-01-16T04:52:39.914Z,4.20
2019-01-16T04:55:37.158Z,4.70
2019-01-16T04:58:28.043Z,4.83
2019-01-16T05:01:24.936Z,4.40
2019-01-16T05:04:28.063Z,4.00
2019-01-16T05:07:17.074Z,3.93
2019-01-16T05:10:20.095Z,3.87
2019-01-16T05:13:06.773Z,4.00
2019-01-16T05:15:44.991Z,3.47
2019-01-16T05:21:39.046Z,3.77
2019-01-16T05:24:25.588Z,3.47
2019-01-16T05:27:16.506Z,3.97
2019-01-16T05:29:57.078Z,4.00
2019-01-16T05:32:57.399Z,3.80
2019-01-16T05:35:48.381Z,4.07
2019-01-16T05:38:35.263Z,4.53
2019-01-16T05:41:32.249Z,3.87
2019-01-16T05:44:18.897Z,4.00
2019-01-16T05:46:58.690Z,4.40
2019-01-16T05:52:57.884Z,3.73
2019-01-16T05:55:49.996Z,3.27
2019-01-16T05:58:37.682Z,3.93
2019-01-16T06:01:24.315Z,3.27
2019-01-16T06:04:11.474Z,3.60
2019-01-16T06:06:58.376Z,3.30
2019-01-16T06:09:52.538Z,3.37
2019-01-16T06:12:38.366Z,3.83
2019-01-16T06:15:29.283Z,4.33
2019-01-16T06:18:13.122Z,3.50
2019-01-16T06:21:09.671Z,3.53
2019-01-16T06:23:57.767Z,3.80
2019-01-16T06:26:43.612Z,3.43
2019-01-16T06:29:30.389Z,3.30
2019-01-16T06:32:18.626Z,3.47
2019-01-16T06:34:57.894Z,3.20
2019-01-16T06:37:45.693Z,3.50
2019-01-16T06:40:32.254Z,3.73
2019-01-16T06:43:18.392Z,3.90
2019-01-16T06:46:04.342Z,3.33
2019-01-16T06:48:48.148Z,3.77
2019-01-16T06:51:33.522Z,3.17
2019-01-16T06:54:36.883Z,4.33
2019-01-16T06:57:23.579Z,4.57
2019-01-16T07:00:02.529Z,5.00
2019-01-16T07:02:49.262Z,5.60
2019-01-16T07:05:37.390Z,5.40
2019-01-16T07:08:23.949Z,4.10
2019-01-16T07:11:10.629Z,3.80
2019-01-16T07:13:57.532Z,4.47
2019-01-16T07:16:45.711Z,5.40
2019-01-16T07:19:23.897Z,4.67
2019-01-16T07:22:02.447Z,3.93
2019-01-16T07:24:49.088Z,4.10
2019-01-16T07:27:46.066Z,4.80
2019-01-16T07:30:33.502Z,4.13
2019-01-16T07:33:20.032Z,4.00
2019-01-16T07:36:06.590Z,3.97
2019-01-16T07:38:53.233Z,3.90
2019-01-16T07:41:41.363Z,4.53
2019-01-16T07:44:41.348Z,3.60
2019-01-16T07:47:27.466Z,4.27
2019-01-16T07:50:24.667Z,4.43
2019-01-16T07:53:30.923Z,5.07
2019-01-16T07:56:31.239Z,4.60
2019-01-16T07:59:25.132Z,4.17
2019-01-16T08:02:19.258Z,4.30
2019-01-16T08:04:56.958Z,5.20
2019-01-16T08:07:42.664Z,5.57
2019-01-16T08:10:39.639Z,5.37
2019-01-16T08:13:23.186Z,4.57
2019-01-16T08:16:14.258Z,4.33
2019-01-16T08:19:08.241Z,6.13
2019-01-16T08:21:54.966Z,8.87
2019-01-16T08:24:48.975Z,7.87
2019-01-16T08:27:35.892Z,4.80
2019-01-16T08:30:21.975Z,5.23
2019-01-16T08:33:15.890Z,4.67
2019-01-16T08:36:02.652Z,4.20
2019-01-16T08:38:49.577Z,4.53
2019-01-16T08:41:49.697Z,4.17
2019-01-16T08:44:32.096Z,6.60
2019-01-16T08:47:18.678Z,5.03
2019-01-16T08:50:08.786Z,4.50
2019-01-16T08:52:56.923Z,5.03
2019-01-16T08:55:57.225Z,4.73
2019-01-16T08:58:46.758Z,5.63
2019-01-16T09:01:33.299Z,7.50
2019-01-16T09:04:24.562Z,5.47
2019-01-16T09:07:18.683Z,7.30
2019-01-16T09:10:16.022Z,5.20
2019-01-16T09:13:02.691Z,6.83
2019-01-16T09:15:51.727Z,8.10
2019-01-16T09:18:46.147Z,5.73
2019-01-16T09:21:32.953Z,6.53
2019-01-16T09:24:19.739Z,6.70
2019-01-16T09:27:16.441Z,6.20
2019-01-16T09:30:03.233Z,6.37
2019-01-16T09:32:49.806Z,6.53
2019-01-16T09:35:26.563Z,6.97
2019-01-16T09:38:14.795Z,6.43
2019-01-16T09:41:02.986Z,6.83
2019-01-16T09:43:51.208Z,5.97
2019-01-16T09:46:42.329Z,6.67
2019-01-16T09:49:30.455Z,6.00
2019-01-16T09:52:12.347Z,6.63
2019-01-16T09:55:12.353Z,5.83
2019-01-16T09:57:59.859Z,6.60
2019-01-16T10:00:46.714Z,6.43
2019-01-16T10:03:39.699Z,6.40
2019-01-16T10:06:30.695Z,6.13
2019-01-16T10:09:21.581Z,7.53
2019-01-16T10:11:59.410Z,6.37
2019-01-16T10:14:42.192Z,6.03
2019-01-16T10:17:39.642Z,5.67
2019-01-16T10:20:27.250Z,6.33
2019-01-16T10:23:21.307Z,6.20
2019-01-16T10:26:06.021Z,5.53
2019-01-16T10:28:59.970Z,6.20
2019-01-16T10:31:54.242Z,5.83
2019-01-16T10:34:48.270Z,5.33
2019-01-16T10:37:39.427Z,5.93
2019-01-16T10:40:27.135Z,5.60
2019-01-16T10:43:22.387Z,5.63
2019-01-16T10:46:09.161Z,6.20
2019-01-16T10:48:57.264Z,5.97
2019-01-16T10:51:48.225Z,5.67
2019-01-16T10:54:43.695Z,5.57
2019-01-16T10:57:31.803Z,6.20
2019-01-16T11:00:26.599Z,6.70
2019-01-16T11:03:08.239Z,6.27
2019-01-16T11:05:54.954Z,5.40
2019-01-16T11:08:43.123Z,6.17
2019-01-16T11:11:37.348Z,6.33
2019-01-16T11:14:40.521Z,5.97
2019-01-16T11:17:27.390Z,5.50
2019-01-16T11:20:18.462Z,5.30
2019-01-16T11:23:15.498Z,5.73
2019-01-16T11:25:51.966Z,4.83
2019-01-16T11:28:33.304Z,5.10
2019-01-16T11:31:21.430Z,4.77
2019-01-16T11:34:01.458Z,4.60
2019-01-16T11:36:47.873Z,5.70
2019-01-16T11:39:48.049Z,5.43
2019-01-16T11:42:42.422Z,4.80
2019-01-16T11:45:27.251Z,5.00
2019-01-16T11:48:24.408Z,5.67
2019-01-16T11:51:08.744Z,5.20
2019-01-16T11:54:01.768Z,5.00
2019-01-16T11:56:54.553Z,5.27
2019-01-16T11:59:33.321Z,5.07
2019-01-16T12:02:19.881Z,4.60
2019-01-16T12:05:08.020Z,5.37
2019-01-16T12:08:05.022Z,5.37
2019-01-16T12:11:05.032Z,5.07
2019-01-16T12:13:54.155Z,4.87
2019-01-16T12:16:40.914Z,5.10
2019-01-16T12:19:34.879Z,5.40
2019-01-16T12:22:41.501Z,4.20
2019-01-16T12:25:17.667Z,5.10
2019-01-16T12:28:01.498Z,5.10
2019-01-16T12:30:43.539Z,4.23
2019-01-16T12:33:37.737Z,5.20
2019-01-16T12:36:31.695Z,5.20
2019-01-16T12:39:19.822Z,4.40
2019-01-16T12:42:17.323Z,5.30
2019-01-16T12:45:14.355Z,6.20
2019-01-16T12:48:01.306Z,6.23
2019-01-16T12:50:40.598Z,4.17
2019-01-16T12:53:27.319Z,4.97
2019-01-16T12:56:07.861Z,6.77
2019-01-16T12:58:54.699Z,5.80
2019-01-16T13:01:41.274Z,5.07
2019-01-16T13:04:21.235Z,5.53
2019-01-16T13:07:09.963Z,4.57
2019-01-16T13:09:54.921Z,5.17
2019-01-16T13:12:53.142Z,4.57
2019-01-16T13:15:44.076Z,4.67
2019-01-16T13:18:32.225Z,4.83
2019-01-16T13:21:29.530Z,5.33
2019-01-16T13:24:32.571Z,5.07
2019-01-16T13:27:15.665Z,4.93
2019-01-16T13:30:03.780Z,4.50
2019-01-16T13:32:51.889Z,6.23
2019-01-16T13:35:38.745Z,5.70
2019-01-16T13:38:35.822Z,5.73
2019-01-16T13:41:27.294Z,5.17
2019-01-16T13:44:15.386Z,4.40
2019-01-16T13:47:09.267Z,5.57
2019-01-16T13:49:55.740Z,5.27
2019-01-16T13:52:49.665Z,5.33
2019-01-16T13:55:36.142Z,4.43
2019-01-16T13:58:27.709Z,4.73
2019-01-16T14:01:03.494Z,5.10
2019-01-16T14:03:52.491Z,5.77
2019-01-16T14:06:40.771Z,5.77
2019-01-16T14:09:32.936Z,5.13
2019-01-16T14:12:26.187Z,4.67
2019-01-16T14:15:21.814Z,5.50
2019-01-16T14:18:12.050Z,5.00
2019-01-16T14:21:15.115Z,5.50
2019-01-16T14:24:15.312Z,4.77
2019-01-16T14:26:53.170Z,5.20
2019-01-16T14:29:51.891Z,10.23
2019-01-16T14:32:52.320Z,11.13
2019-01-16T14:35:49.202Z,8.83
2019-01-16T14:38:36.014Z,8.70
2019-01-16T14:41:22.888Z,6.13
2019-01-16T14:44:03.047Z,13.40
2019-01-16T14:46:42.207Z,8.37
2019-01-16T14:49:23.488Z,5.97
2019-01-16T14:52:19.171Z,9.80
2019-01-16T14:55:06.579Z,7.10
2019-01-16T14:57:54.807Z,9.53
2019-01-16T15:00:40.051Z,10.73
2019-01-16T15:03:33.797Z,17.57
2019-01-16T15:06:20.574Z,9.10
2019-01-16T15:09:06.688Z,7.00
2019-01-16T15:11:51.703Z,6.50
2019-01-16T15:14:30.550Z,6.90
2019-01-16T15:17:24.735Z,6.13
2019-01-16T15:20:24.822Z,7.73
2019-01-16T15:23:02.882Z,6.40
2019-01-16T15:25:47.839Z,6.17
2019-01-16T15:28:50.903Z,6.37
2019-01-16T15:31:46.370Z,5.23
2019-01-16T15:34:30.776Z,7.63
2019-01-16T15:37:37.108Z,6.20
2019-01-16T15:40:32.245Z,8.77
2019-01-16T15:43:15.423Z,6.37
2019-01-16T15:46:18.567Z,7.47
2019-01-16T15:49:21.563Z,8.07
2019-01-16T15:52:00.246Z,8.27
2019-01-16T15:54:46.755Z,16.10
2019-01-16T15:57:35.643Z,9.67
2019-01-16T16:00:26.606Z,8.40
2019-01-16T16:03:06.538Z,9.13
2019-01-16T16:05:53.107Z,5.70
2019-01-16T16:08:41.344Z,15.70
2019-01-16T16:11:26.478Z,8.73
2019-01-16T16:14:13.431Z,10.10
2019-01-16T16:17:01.647Z,6.10
2019-01-16T16:19:48.473Z,5.93
2019-01-16T16:22:31.877Z,6.43
2019-01-16T16:25:18.634Z,6.53
2019-01-16T16:28:05.281Z,5.37
2019-01-16T16:30:51.863Z,6.70
2019-01-16T16:33:38.416Z,5.20
2019-01-16T16:36:41.732Z,13.60
2019-01-16T16:39:29.851Z,7.00
2019-01-16T16:42:17.952Z,6.27
2019-01-16T16:45:04.787Z,6.10
2019-01-16T16:47:51.655Z,6.83
2019-01-16T16:50:40.166Z,7.87
2019-01-16T16:53:34.266Z,6.30
2019-01-16T16:56:22.933Z,8.40
2019-01-16T16:59:09.700Z,6.00
2019-01-16T17:02:01.432Z,5.87
2019-01-16T17:05:04.933Z,6.40
2019-01-16T17:07:50.761Z,5.97
2019-01-16T17:10:47.954Z,6.33
2019-01-16T17:13:34.551Z,7.47
2019-01-16T17:16:21.130Z,6.17
2019-01-16T17:19:27.033Z,6.10
2019-01-16T17:22:18.446Z,6.20
2019-01-16T17:25:02.034Z,7.67
2019-01-16T17:27:59.273Z,6.80
2019-01-16T17:30:38.473Z,6.73
2019-01-16T17:33:25.629Z,7.57
2019-01-16T17:36:14.500Z,6.77
2019-01-16T17:38:52.577Z,8.77
2019-01-16T17:41:29.003Z,7.93
2019-01-16T17:44:17.276Z,7.57
2019-01-16T17:47:05.278Z,5.67
2019-01-16T17:49:51.828Z,6.23
2019-01-16T17:52:39.006Z,7.97
2019-01-16T17:55:37.034Z,7.83
2019-01-16T17:58:43.403Z,6.57
2019-01-16T18:01:27.365Z,7.27
2019-01-16T18:04:27.704Z,6.27
2019-01-16T18:07:09.195Z,7.57
2019-01-16T18:10:00.658Z,7.13
2019-01-16T18:13:03.742Z,9.50
2019-01-16T18:15:50.519Z,8.23
2019-01-16T18:18:41.488Z,6.77
2019-01-16T18:21:28.077Z,7.47
2019-01-16T18:24:31.081Z,9.70
2019-01-16T18:27:31.382Z,7.60
2019-01-16T18:30:22.586Z,7.47
2019-01-16T18:33:09.849Z,8.27
2019-01-16T18:35:50.022Z,8.30
2019-01-16T18:38:38.137Z,7.13
2019-01-16T18:41:26.278Z,8.27
2019-01-16T18:44:13.261Z,8.27
2019-01-16T18:47:07.172Z,8.77
2019-01-16T18:50:02.948Z,7.97
2019-01-16T18:53:09.375Z,9.87
2019-01-16T18:55:51.922Z,7.70
2019-01-16T18:58:40.036Z,8.67
2019-01-16T19:01:33.915Z,8.83
2019-01-16T19:04:11.323Z,11.13
2019-01-16T19:06:54.294Z,8.90
2019-01-16T19:09:40.846Z,8.40
2019-01-16T19:12:26.154Z,7.47
2019-01-16T19:15:06.809Z,8.87
2019-01-16T19:18:03.975Z,11.23
2019-01-16T19:20:49.050Z,8.73
2019-01-16T19:23:40.125Z,10.30
2019-01-16T19:26:29.996Z,7.93
2019-01-16T19:29:24.143Z,10.20
2019-01-16T19:35:29.395Z,8.67
2019-01-16T19:38:12.144Z,9.70
2019-01-16T19:40:54.395Z,9.73
